createdAt,value
2017-09-30T00:01:55.955Z,101740.67
2017-09-30T00:04:23.561Z,101744.63
2017-09-30T00:06:51.165Z,101746.90
2017-09-30T00:09:18.812Z,101745.91
2017-09-30T00:11:46.701Z,101734.91
2017-09-30T00:14:14.285Z,101736.83
2017-09-30T00:16:41.897Z,101734.30
2017-09-30T00:19:09.475Z,101734.56
2017-09-30T00:21:37.100Z,101741.61
2017-09-30T00:24:04.695Z,101734.53
2017-09-30T00:26:32.287Z,101727.95
2017-09-30T00:29:00.345Z,101725.97
2017-09-30T00:31:27.928Z,101732.98
2017-09-30T00:33:55.565Z,101741.25
2017-09-30T00:36:23.437Z,101743.19
2017-09-30T00:38:51.305Z,101740.00
2017-09-30T00:41:18.916Z,101740.58
2017-09-30T00:43:46.495Z,101733.91
2017-09-30T00:46:14.395Z,101731.18
2017-09-30T00:48:41.987Z,101723.94
2017-09-30T00:51:09.836Z,101722.13
2017-09-30T00:53:37.454Z,101713.41
2017-09-30T00:56:05.040Z,101714.87
2017-09-30T00:58:32.664Z,101714.04
2017-09-30T01:01:00.260Z,101712.95
2017-09-30T01:03:27.855Z,101709.44
2017-09-30T01:05:55.467Z,101708.25
2017-09-30T01:08:23.060Z,101712.61
2017-09-30T01:10:50.716Z,101709.98
2017-09-30T01:13:18.296Z,101709.73
2017-09-30T01:15:45.901Z,101713.54
2017-09-30T01:18:13.517Z,101704.73
2017-09-30T01:20:41.109Z,101708.51
2017-09-30T01:23:08.739Z,101710.36
2017-09-30T01:25:36.596Z,101708.26
2017-09-30T01:28:04.179Z,101707.17
2017-09-30T01:30:31.804Z,101702.56
2017-09-30T01:32:59.423Z,101696.27
2017-09-30T01:35:27.452Z,101700.05
2017-09-30T01:37:55.434Z,101695.52
2017-09-30T01:40:23.023Z,101698.83
2017-09-30T01:42:50.657Z,101690.03
2017-09-30T01:45:18.236Z,101691.12
2017-09-30T01:47:45.859Z,101694.55
2017-09-30T01:50:13.449Z,101686.92
2017-09-30T01:52:41.090Z,101694.92
2017-09-30T01:55:08.724Z,101690.27
2017-09-30T01:57:36.330Z,101687.97
2017-09-30T02:00:03.928Z,101685.70
2017-09-30T02:02:31.552Z,101689.02
2017-09-30T02:04:59.409Z,101679.97
2017-09-30T02:07:27.009Z,101677.62
2017-09-30T02:09:54.633Z,101677.28
2017-09-30T02:12:22.212Z,101674.85
2017-09-30T02:14:50.037Z,101671.78
2017-09-30T02:17:17.665Z,101674.89
2017-09-30T02:19:45.280Z,101673.68
2017-09-30T02:22:12.892Z,101669.02
2017-09-30T02:24:40.529Z,101669.61
2017-09-30T02:27:08.114Z,101667.30
2017-09-30T02:29:35.715Z,101668.34
2017-09-30T02:32:03.354Z,101665.79
2017-09-30T02:34:30.944Z,101667.05
2017-09-30T02:36:58.528Z,101672.11
2017-09-30T02:39:26.165Z,101666.41
2017-09-30T02:41:53.745Z,101667.33
2017-09-30T02:44:21.613Z,101672.11
2017-09-30T02:46:49.244Z,101671.27
2017-09-30T02:49:16.833Z,101667.67
2017-09-30T02:51:44.420Z,101668.37
2017-09-30T02:54:12.044Z,101667.83
2017-09-30T02:56:39.926Z,101668.50
2017-09-30T02:59:07.525Z,101670.72
2017-09-30T03:01:35.148Z,101666.78
2017-09-30T03:04:02.739Z,101669.04
2017-09-30T03:06:30.328Z,101670.13
2017-09-30T03:08:57.960Z,101665.09
2017-09-30T03:11:25.547Z,101660.27
2017-09-30T03:13:53.136Z,101658.68
2017-09-30T03:16:21.028Z,101664.45
2017-09-30T03:18:48.626Z,101657.53
2017-09-30T03:21:16.217Z,101657.84
2017-09-30T03:23:43.852Z,101655.16
2017-09-30T03:26:11.444Z,101646.31
2017-09-30T03:28:39.028Z,101650.25
2017-09-30T03:31:06.653Z,101643.63
2017-09-30T03:33:34.241Z,101642.21
2017-09-30T03:36:01.853Z,101649.52
2017-09-30T03:38:29.475Z,101650.44
2017-09-30T03:40:57.065Z,101649.18
2017-09-30T03:43:24.908Z,101647.84
2017-09-30T03:45:52.536Z,101654.95
2017-09-30T03:48:20.152Z,101654.78
2017-09-30T03:50:47.764Z,101650.94
2017-09-30T03:53:15.396Z,101644.52
2017-09-30T03:55:42.980Z,101639.58
2017-09-30T03:58:10.576Z,101636.39
2017-09-30T04:00:38.188Z,101626.81
2017-09-30T04:03:05.777Z,101631.70
2017-09-30T04:05:33.351Z,101629.69
2017-09-30T04:08:00.968Z,101629.64
2017-09-30T04:10:28.564Z,101624.61
2017-09-30T04:12:56.154Z,101624.70
2017-09-30T04:15:23.805Z,101620.70
2017-09-30T04:17:51.399Z,101626.83
2017-09-30T04:20:18.991Z,101623.29
2017-09-30T04:22:46.613Z,101627.64
2017-09-30T04:25:14.186Z,101626.72
2017-09-30T04:27:41.764Z,101620.86
2017-09-30T04:30:09.409Z,101626.72
2017-09-30T04:32:37.033Z,101621.78
2017-09-30T04:35:04.921Z,101624.38
2017-09-30T04:37:32.541Z,101624.23
2017-09-30T04:40:00.140Z,101624.48
2017-09-30T04:42:27.724Z,101622.33
2017-09-30T04:44:55.362Z,101621.38
2017-09-30T04:47:23.030Z,101619.46
2017-09-30T04:49:50.615Z,101618.53
2017-09-30T04:52:18.253Z,101612.34
2017-09-30T04:54:45.845Z,101609.66
2017-09-30T04:57:13.423Z,101613.69
2017-09-30T04:59:41.057Z,101609.29
2017-09-30T05:02:08.909Z,101614.31
2017-09-30T05:04:36.573Z,101613.69
2017-09-30T05:07:04.192Z,101610.19
2017-09-30T05:09:32.097Z,101609.24
2017-09-30T05:11:59.705Z,101609.34
2017-09-30T05:14:27.349Z,101608.34
2017-09-30T05:16:54.940Z,101603.77
2017-09-30T05:19:22.537Z,101598.97
2017-09-30T05:21:50.159Z,101606.78
2017-09-30T05:24:17.745Z,101604.74
2017-09-30T05:26:45.343Z,101602.26
2017-09-30T05:29:13.000Z,101599.24
2017-09-30T05:31:40.596Z,101607.95
2017-09-30T05:34:08.210Z,101602.53
2017-09-30T05:36:35.842Z,101604.25
2017-09-30T05:39:03.455Z,101605.18
2017-09-30T05:41:31.041Z,101610.80
2017-09-30T05:43:58.664Z,101604.09
2017-09-30T05:46:26.243Z,101608.80
2017-09-30T05:48:53.862Z,101610.20
2017-09-30T05:51:21.481Z,101605.45
2017-09-30T05:53:49.116Z,101605.52
2017-09-30T05:56:16.703Z,101602.84
2017-09-30T05:58:44.336Z,101605.34
2017-09-30T06:01:11.920Z,101612.21
2017-09-30T06:03:39.512Z,101609.03
2017-09-30T06:06:07.134Z,101610.00
2017-09-30T06:08:34.990Z,101612.34
2017-09-30T06:11:02.566Z,101610.86
2017-09-30T06:13:30.195Z,101605.84
2017-09-30T06:15:57.798Z,101600.13
2017-09-30T06:18:25.642Z,101601.39
2017-09-30T06:20:53.280Z,101598.09
2017-09-30T06:23:20.894Z,101597.84
2017-09-30T06:25:48.477Z,101599.83
2017-09-30T06:28:16.100Z,101606.28
2017-09-30T06:30:43.956Z,101599.80
2017-09-30T06:33:11.541Z,101603.15
2017-09-30T06:35:39.176Z,101600.39
2017-09-30T06:38:07.045Z,101595.28
2017-09-30T06:40:34.629Z,101594.50
2017-09-30T06:43:02.249Z,101596.00
2017-09-30T06:45:29.837Z,101591.06
2017-09-30T06:47:57.414Z,101583.45
2017-09-30T06:50:25.052Z,101586.97
2017-09-30T06:52:52.671Z,101588.41
2017-09-30T06:55:20.251Z,101587.98
2017-09-30T06:57:47.874Z,101589.53
2017-09-30T07:00:15.472Z,101590.66
2017-09-30T07:02:43.068Z,101586.93
2017-09-30T07:05:10.693Z,101585.58
2017-09-30T07:07:38.288Z,101586.03
2017-09-30T07:10:08.008Z,101590.14
2017-09-30T07:12:35.645Z,101589.65
2017-09-30T07:15:03.270Z,101592.61
2017-09-30T07:17:30.875Z,101593.86
2017-09-30T07:19:58.551Z,101592.77
2017-09-30T07:22:26.132Z,101593.85
2017-09-30T07:24:53.718Z,101589.20
2017-09-30T07:27:21.637Z,101584.02
2017-09-30T07:29:49.224Z,101587.22
2017-09-30T07:32:16.811Z,101583.13
2017-09-30T07:34:44.736Z,101591.69
2017-09-30T07:37:12.374Z,101589.33
2017-09-30T07:39:39.967Z,101589.48
2017-09-30T07:42:07.621Z,101578.92
2017-09-30T07:44:35.283Z,101577.55
2017-09-30T07:47:02.869Z,101582.77
2017-09-30T07:49:30.808Z,101581.35
2017-09-30T07:51:58.409Z,101576.37
2017-09-30T07:54:26.004Z,101579.42
2017-09-30T07:56:53.625Z,101579.68
2017-09-30T07:59:21.206Z,101586.04
2017-09-30T08:01:48.794Z,101579.80
2017-09-30T08:04:16.436Z,101576.12
2017-09-30T08:06:44.032Z,101580.19
2017-09-30T08:09:11.917Z,101580.05
2017-09-30T08:11:39.540Z,101582.07
2017-09-30T08:14:07.129Z,101570.83
2017-09-30T08:16:34.712Z,101575.07
2017-09-30T08:19:02.667Z,101567.00
2017-09-30T08:21:30.247Z,101573.12
2017-09-30T08:23:58.102Z,101577.20
2017-09-30T08:26:25.720Z,101565.05
2017-09-30T08:28:53.324Z,101560.83
2017-09-30T08:31:21.189Z,101552.73
2017-09-30T08:33:48.807Z,101552.39
2017-09-30T08:36:16.412Z,101556.21
2017-09-30T08:38:44.001Z,101548.08
2017-09-30T08:41:11.627Z,101550.95
2017-09-30T08:43:39.235Z,101547.36
2017-09-30T08:46:06.812Z,101546.27
2017-09-30T08:48:34.445Z,101552.66
2017-09-30T08:51:02.033Z,101551.64
2017-09-30T08:53:29.859Z,101556.13
2017-09-30T08:55:57.517Z,101549.80
2017-09-30T08:58:25.348Z,101547.07
2017-09-30T09:00:53.248Z,101546.76
2017-09-30T09:03:20.866Z,101540.95
2017-09-30T09:05:48.484Z,101532.45
2017-09-30T09:08:16.069Z,101525.33
2017-09-30T09:10:43.686Z,101520.41
2017-09-30T09:13:11.278Z,101528.16
2017-09-30T09:15:38.877Z,101519.19
2017-09-30T09:18:06.499Z,101515.37
2017-09-30T09:20:34.108Z,101513.00
2017-09-30T09:23:01.696Z,101519.75
2017-09-30T09:25:29.317Z,101512.16
2017-09-30T09:27:57.229Z,101517.26
2017-09-30T09:30:24.816Z,101510.03
2017-09-30T09:32:52.724Z,101506.62
2017-09-30T09:35:20.324Z,101507.52
2017-09-30T09:37:47.925Z,101503.16
2017-09-30T09:40:16.163Z,101498.77
2017-09-30T09:42:44.032Z,101498.28
2017-09-30T09:45:11.870Z,101492.23
2017-09-30T09:47:39.768Z,101481.13
2017-09-30T09:50:07.374Z,101479.20
2017-09-30T09:52:34.973Z,101474.06
2017-09-30T09:55:02.622Z,101477.44
2017-09-30T09:57:30.218Z,101466.56
2017-09-30T09:59:57.821Z,101469.58
2017-09-30T10:02:25.451Z,101463.48
2017-09-30T10:04:53.038Z,101454.60
2017-09-30T10:07:20.632Z,101459.32
2017-09-30T10:09:48.254Z,101452.61
2017-09-30T10:12:15.847Z,101458.91
2017-09-30T10:14:43.446Z,101452.56
2017-09-30T10:17:11.104Z,101442.23
2017-09-30T10:19:38.695Z,101441.75
2017-09-30T10:22:06.288Z,101444.59
2017-09-30T10:24:33.952Z,101442.78
2017-09-30T10:27:01.554Z,101444.51
2017-09-30T10:29:29.160Z,101445.72
2017-09-30T10:31:56.813Z,101434.32
2017-09-30T10:34:24.644Z,101436.51
2017-09-30T10:36:52.275Z,101436.31
2017-09-30T10:39:19.956Z,101428.56
2017-09-30T10:41:47.551Z,101428.09
2017-09-30T10:44:15.143Z,101425.31
2017-09-30T10:46:43.113Z,101430.09
2017-09-30T10:49:10.718Z,101433.92
2017-09-30T10:51:38.313Z,101436.53
2017-09-30T10:54:05.996Z,101418.91
2017-09-30T10:56:33.588Z,101416.37
2017-09-30T10:59:01.181Z,101417.94
2017-09-30T11:01:28.818Z,101410.58
2017-09-30T11:03:56.736Z,101408.46
2017-09-30T11:06:24.365Z,101401.64
2017-09-30T11:08:52.009Z,101407.23
2017-09-30T11:11:19.608Z,101407.72
2017-09-30T11:13:47.211Z,101405.14
2017-09-30T11:16:14.841Z,101396.83
2017-09-30T11:18:42.440Z,101398.41
2017-09-30T11:21:10.023Z,101397.46
2017-09-30T11:23:37.652Z,101396.49
2017-09-30T11:26:05.574Z,101396.20
2017-09-30T11:28:33.237Z,101394.05
2017-09-30T11:31:00.871Z,101393.08
2017-09-30T11:33:28.487Z,101391.30
2017-09-30T11:35:56.128Z,101392.66
2017-09-30T11:38:23.755Z,101396.88
2017-09-30T11:40:51.345Z,101391.01
2017-09-30T11:43:18.948Z,101383.73
2017-09-30T11:45:46.886Z,101380.52
2017-09-30T11:48:14.473Z,101376.13
2017-09-30T11:50:42.060Z,101368.48
2017-09-30T11:53:09.692Z,101370.31
2017-09-30T11:55:37.280Z,101367.07
2017-09-30T11:58:05.188Z,101366.81
2017-09-30T12:00:33.160Z,101359.09
2017-09-30T12:03:00.812Z,101360.65
2017-09-30T12:05:28.404Z,101353.88
2017-09-30T12:07:56.023Z,101351.02
2017-09-30T12:10:23.617Z,101351.70
2017-09-30T12:12:51.213Z,101338.11
2017-09-30T12:15:18.846Z,101341.62
2017-09-30T12:17:46.474Z,101342.95
2017-09-30T12:20:14.074Z,101339.46
2017-09-30T12:22:41.695Z,101340.11
2017-09-30T12:25:09.334Z,101338.00
2017-09-30T12:27:36.932Z,101343.97
2017-09-30T12:30:04.604Z,101336.17
2017-09-30T12:32:32.475Z,101334.63
2017-09-30T12:37:33.867Z,101329.53
2017-09-30T12:40:01.468Z,101329.63
2017-09-30T12:42:29.060Z,101327.70
2017-09-30T12:44:56.933Z,101330.66
2017-09-30T12:47:24.517Z,101327.99
2017-09-30T12:49:52.096Z,101328.70
2017-09-30T12:52:19.724Z,101327.69
2017-09-30T12:54:47.324Z,101327.92
2017-09-30T12:57:14.911Z,101321.63
2017-09-30T12:59:42.546Z,101322.38
2017-09-30T13:02:10.142Z,101315.63
2017-09-30T13:04:37.732Z,101309.15
2017-09-30T13:07:05.377Z,101305.23
2017-09-30T13:09:32.959Z,101308.78
2017-09-30T13:12:00.578Z,101309.11
2017-09-30T13:14:28.196Z,101299.92
2017-09-30T13:16:55.769Z,101301.92
2017-09-30T13:19:23.405Z,101300.75
2017-09-30T13:21:51.036Z,101302.14
2017-09-30T13:24:18.624Z,101309.27
2017-09-30T13:26:46.229Z,101305.52
2017-09-30T13:29:13.852Z,101299.67
2017-09-30T13:31:41.437Z,101297.20
2017-09-30T13:34:09.023Z,101298.70
2017-09-30T13:36:36.643Z,101296.86
2017-09-30T13:39:04.236Z,101297.23
2017-09-30T13:41:31.824Z,101298.72
2017-09-30T13:43:59.450Z,101312.28
2017-09-30T13:46:27.077Z,101306.09
2017-09-30T13:48:54.666Z,101315.84
2017-09-30T13:51:22.605Z,101307.78
2017-09-30T13:53:50.180Z,101308.92
2017-09-30T13:56:17.775Z,101309.15
2017-09-30T13:58:45.407Z,101302.55
2017-09-30T14:01:13.011Z,101302.51
2017-09-30T14:03:40.589Z,101298.28
2017-09-30T14:06:08.207Z,101300.28
2017-09-30T14:08:35.792Z,101298.81
2017-09-30T14:11:03.380Z,101293.23
2017-09-30T14:13:31.020Z,101297.61
2017-09-30T14:15:58.625Z,101293.92
2017-09-30T14:18:26.565Z,101285.60
2017-09-30T14:20:54.564Z,101292.11
2017-09-30T14:23:22.160Z,101292.53
2017-09-30T14:25:49.826Z,101288.19
2017-09-30T14:28:17.482Z,101276.93
2017-09-30T14:30:45.080Z,101278.69
2017-09-30T14:33:12.991Z,101276.47
2017-09-30T14:35:40.614Z,101271.11
2017-09-30T14:38:08.206Z,101277.48
2017-09-30T14:40:35.793Z,101273.09
2017-09-30T14:43:03.419Z,101271.39
2017-09-30T14:45:31.296Z,101272.11
2017-09-30T14:47:59.125Z,101270.66
2017-09-30T14:50:27.026Z,101271.66
2017-09-30T14:52:54.651Z,101268.42
2017-09-30T14:55:22.231Z,101271.84
2017-09-30T14:57:49.885Z,101274.48
2017-09-30T15:00:17.476Z,101276.53
2017-09-30T15:02:45.056Z,101276.63
2017-09-30T15:05:13.009Z,101280.16
2017-09-30T15:07:40.603Z,101275.84
2017-09-30T15:10:08.183Z,101271.42
2017-09-30T15:12:35.816Z,101275.38
2017-09-30T15:15:03.440Z,101273.05
2017-09-30T15:17:31.044Z,101272.82
2017-09-30T15:19:58.683Z,101276.20
2017-09-30T15:22:26.548Z,101275.67
2017-09-30T15:24:54.197Z,101275.01
2017-09-30T15:27:22.082Z,101276.78
2017-09-30T15:29:49.676Z,101277.75
2017-09-30T15:32:17.256Z,101282.20
2017-09-30T15:34:44.894Z,101282.06
2017-09-30T15:37:12.481Z,101279.27
2017-09-30T15:39:40.111Z,101279.14
2017-09-30T15:42:07.736Z,101281.27
2017-09-30T15:44:35.345Z,101286.32
2017-09-30T15:47:02.979Z,101281.78
2017-09-30T15:49:30.617Z,101289.08
2017-09-30T15:51:58.228Z,101283.89
2017-09-30T15:54:25.838Z,101289.74
2017-09-30T15:56:53.691Z,101290.59
2017-09-30T15:59:21.305Z,101290.77
2017-09-30T16:01:49.236Z,101290.53
2017-09-30T16:04:16.916Z,101288.09
2017-09-30T16:06:44.508Z,101290.83
2017-09-30T16:09:12.119Z,101287.13
2017-09-30T16:11:39.750Z,101288.98
2017-09-30T16:14:07.683Z,101278.06
2017-09-30T16:16:35.265Z,101283.72
2017-09-30T16:19:02.897Z,101288.25
2017-09-30T16:21:30.777Z,101286.13
2017-09-30T16:23:58.645Z,101283.75
2017-09-30T16:26:26.274Z,101283.52
2017-09-30T16:28:53.865Z,101281.66
2017-09-30T16:31:21.447Z,101287.06
2017-09-30T16:33:49.096Z,101285.20
2017-09-30T16:36:16.702Z,101284.23
2017-09-30T16:38:44.623Z,101285.45
2017-09-30T16:41:12.259Z,101288.00
2017-09-30T16:43:39.846Z,101291.91
2017-09-30T16:46:07.445Z,101292.13
2017-09-30T16:48:35.066Z,101284.17
2017-09-30T16:51:02.656Z,101284.48
2017-09-30T16:53:30.267Z,101285.38
2017-09-30T16:55:57.887Z,101282.67
2017-09-30T16:58:25.716Z,101279.23
2017-09-30T17:00:53.324Z,101273.27
2017-09-30T17:03:21.256Z,101278.47
2017-09-30T17:05:48.844Z,101272.02
2017-09-30T17:08:16.429Z,101273.58
2017-09-30T17:10:44.072Z,101273.48
2017-09-30T17:13:11.668Z,101272.03
2017-09-30T17:15:39.564Z,101273.67
2017-09-30T17:18:07.179Z,101274.69
2017-09-30T17:20:34.775Z,101270.84
2017-09-30T17:23:02.363Z,101280.87
2017-09-30T17:25:29.997Z,101271.14
2017-09-30T17:27:57.620Z,101273.52
2017-09-30T17:30:25.209Z,101284.86
2017-09-30T17:32:52.892Z,101280.53
2017-09-30T17:35:20.531Z,101284.06
2017-09-30T17:37:48.472Z,101282.44
2017-09-30T17:40:16.102Z,101285.25
2017-09-30T17:42:44.000Z,101284.34
2017-09-30T17:45:11.599Z,101282.48
2017-09-30T17:47:39.224Z,101282.16
2017-09-30T17:50:06.832Z,101283.34
2017-09-30T17:52:34.421Z,101283.34
2017-09-30T17:55:02.057Z,101288.12
2017-09-30T17:57:29.658Z,101280.36
2017-09-30T17:59:57.240Z,101278.66
2017-09-30T18:02:24.880Z,101277.55
2017-09-30T18:04:52.494Z,101275.16
2017-09-30T18:07:20.384Z,101276.62
2017-09-30T18:09:48.358Z,101279.87
2017-09-30T18:12:15.991Z,101277.72
2017-09-30T18:14:43.592Z,101283.19
2017-09-30T18:17:11.216Z,101278.44
2017-09-30T18:19:38.814Z,101279.58
2017-09-30T18:22:06.395Z,101279.92
2017-09-30T18:24:34.035Z,101281.27
2017-09-30T18:27:01.615Z,101281.37
2017-09-30T18:29:29.208Z,101286.17
2017-09-30T18:31:56.840Z,101282.20
2017-09-30T18:34:24.997Z,101285.64
2017-09-30T18:36:52.601Z,101286.71
2017-09-30T18:39:20.222Z,101289.41
2017-09-30T18:41:47.817Z,101285.45
2017-09-30T18:44:15.846Z,101291.77
2017-09-30T18:46:44.146Z,101291.59
2017-09-30T18:49:11.746Z,101288.68
2017-09-30T18:51:39.345Z,101290.75
2017-09-30T18:54:06.974Z,101290.95
2017-09-30T18:56:34.625Z,101294.18
2017-09-30T18:59:02.217Z,101291.61
2017-09-30T19:01:29.843Z,101295.45
2017-09-30T19:03:57.765Z,101296.28
2017-09-30T19:06:25.349Z,101295.87
2017-09-30T19:08:52.970Z,101299.69
2017-09-30T19:11:20.852Z,101297.31
2017-09-30T19:13:48.508Z,101298.78
2017-09-30T19:16:16.148Z,101295.45
2017-09-30T19:18:43.752Z,101303.97
2017-09-30T19:21:11.384Z,101302.72
2017-09-30T19:23:39.000Z,101304.69
2017-09-30T19:26:06.635Z,101303.76
2017-09-30T19:28:34.222Z,101303.14
2017-09-30T19:31:01.843Z,101305.11
2017-09-30T19:33:29.717Z,101306.34
2017-09-30T19:35:57.324Z,101307.92
2017-09-30T19:38:24.948Z,101308.53
2017-09-30T19:40:52.543Z,101307.69
2017-09-30T19:43:20.175Z,101307.28
2017-09-30T19:45:47.805Z,101310.06
2017-09-30T19:48:15.697Z,101307.06
2017-09-30T19:50:43.287Z,101305.09
2017-09-30T19:53:10.913Z,101304.78
2017-09-30T19:55:38.499Z,101303.22
2017-09-30T19:58:06.081Z,101300.50
2017-09-30T20:00:33.704Z,101305.80
2017-09-30T20:03:01.289Z,101302.77
2017-09-30T20:05:28.871Z,101308.68
2017-09-30T20:07:56.510Z,101307.73
2017-09-30T20:10:24.108Z,101312.41
2017-09-30T20:12:51.731Z,101316.22
2017-09-30T20:15:19.685Z,101312.77
2017-09-30T20:17:47.652Z,101316.39
2017-09-30T20:20:15.282Z,101309.98
2017-09-30T20:22:42.958Z,101301.48
2017-09-30T20:25:10.579Z,101304.05
2017-09-30T20:27:38.411Z,101297.20
2017-09-30T20:30:06.044Z,101290.67
2017-09-30T20:32:33.636Z,101300.11
2017-09-30T20:35:01.604Z,101295.95
2017-09-30T20:37:29.269Z,101303.83
2017-09-30T20:39:56.857Z,101299.48
2017-09-30T20:42:24.444Z,101298.75
2017-09-30T20:44:52.078Z,101301.52
2017-09-30T20:47:19.663Z,101296.77
2017-09-30T20:49:47.588Z,101297.59
2017-09-30T20:52:15.563Z,101299.05
2017-09-30T20:54:43.182Z,101297.39
2017-09-30T20:57:10.786Z,101299.98
2017-09-30T20:59:38.421Z,101301.42
2017-09-30T21:02:06.027Z,101300.38
2017-09-30T21:04:33.628Z,101299.64
2017-09-30T21:07:01.267Z,101299.33
2017-09-30T21:09:28.859Z,101297.95
2017-09-30T21:11:56.456Z,101289.78
2017-09-30T21:14:24.085Z,101287.28
2017-09-30T21:16:52.082Z,101294.45
2017-09-30T21:19:19.678Z,101298.66
2017-09-30T21:21:47.316Z,101295.98
2017-09-30T21:24:14.910Z,101295.88
2017-09-30T21:26:42.505Z,101296.48
2017-09-30T21:29:10.506Z,101293.25
2017-09-30T21:31:39.137Z,101298.13
2017-09-30T21:34:06.731Z,101295.66
2017-09-30T21:36:34.358Z,101292.74
2017-09-30T21:39:01.948Z,101297.49
2017-09-30T21:41:29.537Z,101290.05
2017-09-30T21:43:57.165Z,101291.79
2017-09-30T21:46:25.061Z,101292.41
2017-09-30T21:48:52.673Z,101294.87
2017-09-30T21:51:20.298Z,101299.64
2017-09-30T21:53:47.878Z,101299.13
2017-09-30T21:56:15.475Z,101295.73
2017-09-30T21:58:43.108Z,101293.30
2017-09-30T22:01:10.708Z,101295.77
2017-09-30T22:03:38.312Z,101289.44
2017-09-30T22:06:05.943Z,101293.16
2017-09-30T22:08:33.532Z,101292.95
2017-09-30T22:11:01.398Z,101289.34
2017-09-30T22:13:29.363Z,101298.37
2017-09-30T22:15:56.964Z,101298.24
2017-09-30T22:18:24.565Z,101300.33
2017-09-30T22:20:52.192Z,101293.95
2017-09-30T22:23:19.809Z,101293.34
2017-09-30T22:25:47.408Z,101297.70
2017-09-30T22:28:15.040Z,101293.95
2017-09-30T22:30:42.630Z,101302.95
2017-09-30T22:33:10.228Z,101301.90
2017-09-30T22:35:37.863Z,101300.71
2017-09-30T22:38:05.460Z,101308.20
2017-09-30T22:40:33.056Z,101305.64
2017-09-30T22:43:00.730Z,101304.71
2017-09-30T22:45:28.331Z,101303.78
2017-09-30T22:47:55.922Z,101301.31
2017-09-30T22:50:23.552Z,101301.83
2017-09-30T22:52:51.212Z,101298.81
2017-09-30T22:55:18.800Z,101299.14
2017-09-30T22:57:46.420Z,101295.07
2017-09-30T23:00:14.015Z,101299.94
2017-09-30T23:02:41.605Z,101291.13
2017-09-30T23:05:09.568Z,101295.07
2017-09-30T23:07:37.191Z,101294.30
2017-09-30T23:10:04.774Z,101293.69
2017-09-30T23:12:32.393Z,101296.47
2017-09-30T23:15:00.835Z,101293.78
2017-09-30T23:17:28.698Z,101297.56
2017-09-30T23:19:56.361Z,101296.62
2017-09-30T23:22:23.963Z,101291.41
2017-09-30T23:24:51.547Z,101294.20
2017-09-30T23:27:19.197Z,101296.51
2017-09-30T23:29:46.784Z,101296.00
2017-09-30T23:32:14.375Z,101285.81
2017-09-30T23:34:41.995Z,101290.39
2017-09-30T23:37:09.583Z,101291.50
2017-09-30T23:39:37.184Z,101286.89
2017-09-30T23:42:05.124Z,101289.36
2017-09-30T23:44:32.719Z,101290.84
2017-09-30T23:47:00.303Z,101287.91
2017-09-30T23:49:28.216Z,101285.89
2017-09-30T23:51:55.809Z,101293.34
2017-09-30T23:54:23.394Z,101289.08
2017-09-30T23:56:51.073Z,101284.95
2017-09-30T23:59:18.690Z,101283.70
